createdAt,value
2022-11-26T00:04:39.450Z,21.67
2022-11-26T00:09:42.706Z,24.63
2022-11-26T00:14:47.997Z,20.75
2022-11-26T00:19:51.372Z,18.98
2022-11-26T00:24:54.709Z,21.55
2022-11-26T00:29:58.957Z,31.77
2022-11-26T00:35:01.784Z,35.75
2022-11-26T00:40:05.235Z,23.80
2022-11-26T00:45:16.921Z,41.25
2022-11-26T00:50:22.409Z,26.67
2022-11-26T00:55:30.922Z,27.23
2022-11-26T01:00:36.349Z,27.77
2022-11-26T01:05:39.240Z,32.92
2022-11-26T01:10:42.022Z,34.65
2022-11-26T01:15:46.213Z,36.58
2022-11-26T01:20:49.213Z,26.35
2022-11-26T01:25:51.918Z,30.15
2022-11-26T01:30:55.994Z,29.60
2022-11-26T01:35:58.844Z,26.88
2022-11-26T01:41:12.512Z,28.63
2022-11-26T01:46:18.637Z,25.38
2022-11-26T01:51:26.763Z,24.45
2022-11-26T01:56:34.902Z,28.38
2022-11-26T02:01:39.988Z,37.67
2022-11-26T02:06:44.642Z,25.45
2022-11-26T02:11:47.674Z,14.55
2022-11-26T02:17:11.363Z,27.60
2022-11-26T02:22:31.824Z,26.25
2022-11-26T02:28:05.334Z,27.80
2022-11-26T02:33:12.986Z,29.60
2022-11-26T02:38:20.555Z,19.70
2022-11-26T02:43:25.344Z,23.40
2022-11-26T02:48:33.257Z,17.27
2022-11-26T02:53:37.824Z,28.23
2022-11-26T02:58:40.904Z,25.42
2022-11-26T03:03:50.082Z,18.30
2022-11-26T03:08:55.711Z,20.77
2022-11-26T03:13:58.599Z,17.83
2022-11-26T03:19:02.865Z,33.58
2022-11-26T03:24:07.247Z,13.68
2022-11-26T03:29:10.117Z,14.45
2022-11-26T03:34:14.285Z,19.77
2022-11-26T03:39:17.006Z,15.80
2022-11-26T03:44:19.784Z,22.33
2022-11-26T03:49:23.940Z,15.10
2022-11-26T03:54:27.961Z,13.07
2022-11-26T03:59:30.704Z,10.50
2022-11-26T04:04:34.951Z,22.25
2022-11-26T04:09:38.111Z,12.85
2022-11-26T04:14:41.200Z,15.07
2022-11-26T04:19:45.621Z,14.07
2022-11-26T04:24:48.364Z,21.63
2022-11-26T04:29:51.068Z,33.88
2022-11-26T04:34:55.201Z,44.30
2022-11-26T04:39:58.317Z,63.25
2022-11-26T04:45:01.196Z,29.30
2022-11-26T04:50:06.185Z,40.65
2022-11-26T04:55:09.659Z,58.97
2022-11-26T05:00:13.685Z,32.58
2022-11-26T05:05:18.184Z,38.70
2022-11-26T05:10:21.206Z,24.80
2022-11-26T05:15:23.941Z,90.57
2022-11-26T05:20:28.013Z,53.47
2022-11-26T05:25:30.873Z,56.85
2022-11-26T05:30:33.594Z,25.60
2022-11-26T05:35:38.884Z,29.58
2022-11-26T05:40:41.697Z,25.50
2022-11-26T05:45:44.652Z,32.30
2022-11-26T05:50:53.194Z,53.20
2022-11-26T05:55:57.416Z,61.40
2022-11-26T06:01:00.250Z,63.88
2022-11-26T06:06:04.896Z,115.53
2022-11-26T06:11:07.734Z,89.78
2022-11-26T06:16:10.788Z,94.55
2022-11-26T06:21:14.999Z,57.65
2022-11-26T06:26:17.732Z,49.35
2022-11-26T06:31:20.537Z,38.85
2022-11-26T06:36:25.535Z,34.25
2022-11-26T06:41:28.242Z,62.42
2022-11-26T06:46:31.395Z,52.50
2022-11-26T06:51:35.629Z,12.63
2022-11-26T06:56:39.380Z,27.40
2022-11-26T07:01:42.258Z,31.60
2022-11-26T07:06:47.064Z,35.25
2022-11-26T07:11:50.112Z,30.35
2022-11-26T07:16:52.828Z,14.23
2022-11-26T07:21:57.629Z,20.63
2022-11-26T07:27:00.444Z,13.93
2022-11-26T07:32:04.004Z,29.48
2022-11-26T07:37:08.273Z,35.05
2022-11-26T07:42:11.021Z,17.40
2022-11-26T07:47:13.837Z,23.95
2022-11-26T07:52:18.086Z,28.42
2022-11-26T07:57:22.480Z,41.28
2022-11-26T08:02:25.416Z,89.13
2022-11-26T08:07:29.832Z,84.75
2022-11-26T08:12:32.674Z,28.15
2022-11-26T08:17:35.453Z,60.03
2022-11-26T08:22:39.658Z,85.57
2022-11-26T08:27:42.535Z,44.13
2022-11-26T08:32:45.350Z,124.13
2022-11-26T08:37:49.512Z,76.60
2022-11-26T08:42:52.322Z,63.95
2022-11-26T08:47:55.260Z,39.28
2022-11-26T08:52:59.440Z,68.60
2022-11-26T08:58:02.455Z,53.92
2022-11-26T09:03:05.471Z,68.38
2022-11-26T09:08:09.781Z,52.00
2022-11-26T09:13:15.126Z,38.65
2022-11-26T09:18:20.190Z,96.82
2022-11-26T09:23:24.354Z,36.10
2022-11-26T09:28:28.403Z,36.83
2022-11-26T09:33:31.843Z,35.05
2022-11-26T09:38:37.097Z,22.42
2022-11-26T09:43:53.531Z,33.95
2022-11-26T09:49:02.606Z,22.17
2022-11-26T09:54:11.858Z,40.60
2022-11-26T09:59:18.896Z,20.10
2022-11-26T10:04:28.017Z,22.42
2022-11-26T10:09:57.591Z,30.90
2022-11-26T10:15:09.838Z,22.42
2022-11-26T10:20:50.585Z,46.15
2022-11-26T10:25:59.507Z,28.88
2022-11-26T10:31:04.186Z,22.17
2022-11-26T10:36:17.555Z,26.52
2022-11-26T10:41:23.125Z,37.90
2022-11-26T10:46:35.148Z,35.08
2022-11-26T10:51:38.500Z,30.27
2022-11-26T10:56:46.330Z,43.38
2022-11-26T11:01:51.686Z,26.13
2022-11-26T11:06:58.965Z,19.92
2022-11-26T11:12:19.764Z,14.82
2022-11-26T11:17:41.114Z,24.25
2022-11-26T11:22:44.723Z,22.08
2022-11-26T11:27:49.900Z,25.08
2022-11-26T11:32:56.751Z,21.75
2022-11-26T11:38:00.005Z,22.92
2022-11-26T11:43:07.644Z,22.90
2022-11-26T11:48:22.831Z,17.40
2022-11-26T11:53:37.008Z,15.75
2022-11-26T11:58:58.810Z,24.38
2022-11-26T12:04:21.068Z,17.83
2022-11-26T12:09:28.148Z,24.75
2022-11-26T12:14:39.925Z,21.52
2022-11-26T12:19:49.672Z,38.60
2022-11-26T12:24:57.588Z,42.95
2022-11-26T12:30:06.181Z,28.05
2022-11-26T12:35:16.685Z,49.22
2022-11-26T12:40:30.044Z,28.90
2022-11-26T12:45:44.562Z,24.40
2022-11-26T12:50:52.774Z,10.57
2022-11-26T12:56:01.800Z,14.70
2022-11-26T13:01:06.394Z,27.45
2022-11-26T13:06:21.923Z,15.18
2022-11-26T13:11:35.644Z,25.80
2022-11-26T13:16:45.954Z,20.70
2022-11-26T13:22:05.934Z,13.15
2022-11-26T13:27:36.416Z,16.35
2022-11-26T13:33:03.893Z,10.52
2022-11-26T13:38:21.126Z,17.98
2022-11-26T13:43:53.629Z,13.85
2022-11-26T13:49:02.906Z,18.88
2022-11-26T13:54:12.737Z,15.95
2022-11-26T13:59:21.657Z,28.15
2022-11-26T14:04:54.353Z,15.48
2022-11-26T14:10:02.084Z,18.88
2022-11-26T14:15:35.261Z,14.07
2022-11-26T14:21:13.833Z,16.00
2022-11-26T14:26:20.036Z,14.48
2022-11-26T14:31:25.177Z,11.27
2022-11-26T14:36:31.321Z,8.13
2022-11-26T14:41:35.976Z,16.95
2022-11-26T14:46:39.457Z,38.20
2022-11-26T14:51:45.825Z,14.73
2022-11-26T14:56:48.733Z,16.07
2022-11-26T15:01:51.590Z,15.18
2022-11-26T15:06:56.032Z,13.77
2022-11-26T15:12:05.505Z,16.45
2022-11-26T15:17:12.559Z,10.70
2022-11-26T15:22:24.049Z,24.60
2022-11-26T15:27:31.679Z,11.52
2022-11-26T15:32:35.090Z,11.68
2022-11-26T15:37:39.228Z,6.85
2022-11-26T15:42:41.945Z,8.75
2022-11-26T15:47:48.037Z,11.98
2022-11-26T15:52:57.236Z,23.75
2022-11-26T15:58:03.883Z,25.70
2022-11-26T16:03:35.475Z,59.15
2022-11-26T16:08:42.984Z,70.13
2022-11-26T16:13:46.097Z,41.88
2022-11-26T16:18:54.897Z,44.22
2022-11-26T16:24:05.472Z,32.83
2022-11-26T16:29:10.757Z,22.73
2022-11-26T16:34:14.857Z,31.52
2022-11-26T16:39:18.278Z,40.83
2022-11-26T16:44:21.052Z,52.47
2022-11-26T16:49:26.554Z,51.05
2022-11-26T16:54:29.369Z,39.97
2022-11-26T16:59:32.088Z,42.65
2022-11-26T17:04:36.305Z,28.98
2022-11-26T17:09:39.372Z,40.65
2022-11-26T17:14:42.330Z,30.67
2022-11-26T17:19:46.458Z,26.35
2022-11-26T17:24:49.241Z,28.42
2022-11-26T17:29:52.254Z,34.03
2022-11-26T17:34:56.460Z,46.63
2022-11-26T17:39:59.413Z,31.83
2022-11-26T17:45:02.337Z,22.73
2022-11-26T17:50:08.302Z,37.53
2022-11-26T17:55:12.188Z,35.80
2022-11-26T18:00:18.360Z,26.45
2022-11-26T18:05:23.366Z,33.58
2022-11-26T18:10:26.170Z,61.60
2022-11-26T18:15:29.073Z,47.78
2022-11-26T18:20:33.248Z,48.05
2022-11-26T18:25:36.022Z,62.15
2022-11-26T18:30:38.800Z,52.53
2022-11-26T18:35:43.508Z,70.13
2022-11-26T18:40:46.299Z,48.67
2022-11-26T18:45:49.450Z,21.33
2022-11-26T18:50:58.493Z,17.95
2022-11-26T18:56:01.397Z,18.92
2022-11-26T19:01:13.485Z,40.85
2022-11-26T19:06:20.544Z,25.85
2022-11-26T19:11:24.047Z,14.63
2022-11-26T19:16:27.427Z,18.75
2022-11-26T19:21:33.736Z,27.08
2022-11-26T19:26:37.764Z,14.67
2022-11-26T19:31:40.911Z,14.90
2022-11-26T19:36:48.506Z,17.67
2022-11-26T19:41:51.669Z,17.20
2022-11-26T19:46:54.481Z,18.80
2022-11-26T19:51:58.693Z,9.38
2022-11-26T19:57:01.505Z,9.45
2022-11-26T20:02:04.402Z,23.05
2022-11-26T20:07:08.803Z,11.38
2022-11-26T20:12:11.935Z,16.00
2022-11-26T20:17:14.829Z,15.20
2022-11-26T20:22:18.987Z,14.85
2022-11-26T20:27:21.831Z,15.75
2022-11-26T20:32:24.580Z,9.50
2022-11-26T20:37:28.931Z,12.52
2022-11-26T20:42:33.561Z,12.30
2022-11-26T20:47:36.442Z,20.00
2022-11-26T20:52:40.616Z,13.00
2022-11-26T20:57:43.445Z,17.52
2022-11-26T21:02:46.593Z,10.43
2022-11-26T21:07:51.817Z,10.10
2022-11-26T21:12:54.604Z,9.70
2022-11-26T21:17:57.543Z,15.43
2022-11-26T21:23:01.698Z,17.27
2022-11-26T21:28:04.998Z,17.17
2022-11-26T21:33:09.646Z,8.00
2022-11-26T21:38:13.933Z,12.68
2022-11-26T21:43:16.691Z,10.20
2022-11-26T21:48:19.519Z,15.07
2022-11-26T21:53:23.806Z,12.02
2022-11-26T21:58:26.807Z,13.90
2022-11-26T22:03:29.582Z,10.50
2022-11-26T22:08:33.721Z,14.07
2022-11-26T22:13:36.537Z,13.57
2022-11-26T22:18:40.996Z,17.20
2022-11-26T22:23:45.811Z,10.82
2022-11-26T22:28:49.667Z,17.98
2022-11-26T22:33:56.184Z,15.52
2022-11-26T22:39:01.900Z,21.90
2022-11-26T22:44:05.093Z,14.55
2022-11-26T22:49:11.953Z,15.30
2022-11-26T22:54:18.146Z,11.02
2022-11-26T22:59:20.930Z,14.90
2022-11-26T23:04:23.964Z,13.07
2022-11-26T23:09:28.154Z,16.23
2022-11-26T23:14:30.962Z,18.55
2022-11-26T23:19:33.821Z,27.75
2022-11-26T23:24:37.963Z,23.55
2022-11-26T23:29:40.955Z,15.55
2022-11-26T23:34:43.880Z,20.10
2022-11-26T23:39:47.957Z,26.48
2022-11-26T23:44:50.677Z,24.50
2022-11-26T23:49:57.178Z,28.95
2022-11-26T23:55:03.897Z,23.60
